Prins Christian Sund, Greenland
Current Conditions -  °F | °C
As of 12:50 PM on Monday 24 Nov 2014 (Local Time) from BGGH Reporting Station
Snow Showers Snow Showers  
Wind Chill: 17°   Ceiling: 1200
Heat Index: 27°   Visibility: 2.5mi
Dew Point: 25°   Wind: 9mph
Humidity: 93%   Direction: 290°WNW
Pressure: 29.18"   Gusts: NA
Location:  60.05°N, 43.17°W
Report Text: BGGH 241450Z 29008KT 4000 -SHSN BKN012 M03/M04 Q0988
Loading
Personal Weather Stations






























Interactive Weather Map New forecast layout! Learn more

10-Day Weather Forecast

Advertisements
Track Severe Weather on mobile